Terminal Aerodrome Forecast
Issued by NWS Paducah, KY

Home | Current Version | Previous Version | Text Only | Print | Product List | Glossary On
Versions: 1 2 3 4 5 6 7 8 9 10 11 12 13 14 15 16 17
000
FTUS43 KPAH 260500
TAFEVV
TAF
KEVV 260520Z 2606/2706 00000KT P6SM SKC
     FM261400 21010G15KT P6SM BKN070
     FM270000 21006KT P6SM BKN100=

USA.gov is the U.S. government's official web portal to all federal, state and local government web resources and services.